createdAt,value
2022-09-10T00:01:42.971Z,99855.59
2022-09-10T00:04:31.068Z,99863.87
2022-09-10T00:07:19.601Z,99859.98
2022-09-10T00:10:08.560Z,99863.11
2022-09-10T00:12:56.442Z,99858.31
2022-09-10T00:15:54.831Z,99857.90
2022-09-10T00:18:43.730Z,99852.21
2022-09-10T00:21:32.282Z,99848.03
2022-09-10T00:24:20.654Z,99846.45
2022-09-10T00:27:09.420Z,99833.77
2022-09-10T00:29:57.161Z,99832.10
2022-09-10T00:32:46.020Z,99828.73
2022-09-10T00:35:34.946Z,99834.34
2022-09-10T00:38:22.756Z,99835.28
2022-09-10T00:41:11.270Z,99839.89
2022-09-10T00:44:03.597Z,99834.98
2022-09-10T00:46:52.521Z,99834.31
2022-09-10T00:49:58.849Z,99830.55
2022-09-10T00:52:48.223Z,99822.90
2022-09-10T00:55:40.416Z,99820.39
2022-09-10T00:58:29.663Z,99818.84
2022-09-10T01:01:19.288Z,99811.27
2022-09-10T01:04:10.811Z,99823.35
2022-09-10T01:06:59.674Z,99819.33
2022-09-10T01:09:48.613Z,99822.64
2022-09-10T01:13:19.261Z,99820.13
2022-09-10T01:16:19.991Z,99822.40
2022-09-10T01:19:46.968Z,99820.59
2022-09-10T01:22:48.133Z,99818.52
2022-09-10T01:26:23.458Z,99819.30
2022-09-10T01:29:23.112Z,99826.09
2022-09-10T01:32:27.503Z,99827.02
2022-09-10T01:35:20.261Z,99820.90
2022-09-10T01:38:15.622Z,99825.83
2022-09-10T01:41:03.621Z,99822.47
2022-09-10T01:43:56.817Z,99823.94
2022-09-10T01:46:59.726Z,99815.61
2022-09-10T01:50:06.765Z,99812.93
2022-09-10T01:53:33.634Z,99803.04
2022-09-10T01:56:35.790Z,99803.55
2022-09-10T02:00:00.142Z,99800.76
2022-09-10T02:03:11.412Z,99805.64
2022-09-10T02:06:00.748Z,99801.48
2022-09-10T02:08:52.966Z,99798.42
2022-09-10T02:11:50.827Z,99805.21
2022-09-10T02:14:57.722Z,99796.48
2022-09-10T02:18:15.803Z,99790.83
2022-09-10T02:21:03.862Z,99785.94
2022-09-10T02:23:59.466Z,99786.86
2022-09-10T02:26:47.649Z,99782.46
2022-09-10T02:29:35.581Z,99780.36
2022-09-10T02:32:23.819Z,99778.95
2022-09-10T02:35:12.187Z,99776.39
2022-09-10T02:38:00.103Z,99779.35
2022-09-10T02:40:51.596Z,99781.03
2022-09-10T02:43:39.543Z,99780.69
2022-09-10T02:46:28.665Z,99780.61
2022-09-10T02:49:16.655Z,99779.06
2022-09-10T02:52:05.150Z,99780.66
2022-09-10T02:54:53.435Z,99777.89
2022-09-10T02:57:42.459Z,99775.64
2022-09-10T03:00:32.742Z,99775.41
2022-09-10T03:03:21.870Z,99780.45
2022-09-10T03:06:10.965Z,99773.85
2022-09-10T03:08:58.994Z,99775.14
2022-09-10T03:11:48.161Z,99769.59
2022-09-10T03:14:35.654Z,99771.23
2022-09-10T03:17:24.151Z,99772.77
2022-09-10T03:20:28.226Z,99768.61
2022-09-10T03:23:17.171Z,99767.13
2022-09-10T03:26:06.335Z,99767.57
2022-09-10T03:28:54.767Z,99766.16
2022-09-10T03:31:46.869Z,99765.58
2022-09-10T03:34:36.359Z,99771.15
2022-09-10T03:37:24.419Z,99770.62
2022-09-10T03:40:12.725Z,99768.25
2022-09-10T03:43:01.194Z,99762.40
2022-09-10T03:45:52.086Z,99760.18
2022-09-10T03:48:40.271Z,99760.16
2022-09-10T03:51:29.741Z,99758.77
2022-09-10T03:54:17.898Z,99762.19
2022-09-10T03:57:06.367Z,99762.73
2022-09-10T03:59:54.317Z,99771.52
2022-09-10T04:02:43.997Z,99770.12
2022-09-10T04:05:33.503Z,99769.70
2022-09-10T04:08:21.688Z,99770.34
2022-09-10T04:11:11.968Z,99772.13
2022-09-10T04:14:00.404Z,99769.55
2022-09-10T04:16:49.047Z,99773.38
2022-09-10T04:19:40.935Z,99774.05
2022-09-10T04:22:28.778Z,99772.25
2022-09-10T04:25:20.240Z,99768.41
2022-09-10T04:28:08.198Z,99767.26
2022-09-10T04:30:56.024Z,99770.80
2022-09-10T04:33:46.568Z,99771.57
2022-09-10T04:36:36.330Z,99775.66
2022-09-10T04:39:24.630Z,99774.45
2022-09-10T04:42:15.543Z,99772.41
2022-09-10T04:45:03.806Z,99768.04
2022-09-10T04:47:54.432Z,99766.55
2022-09-10T04:50:59.283Z,99769.24
2022-09-10T04:53:59.710Z,99760.15
2022-09-10T04:56:53.008Z,99757.40
2022-09-10T04:59:41.719Z,99761.27
2022-09-10T05:02:30.098Z,99764.02
2022-09-10T05:05:18.474Z,99767.39
2022-09-10T05:08:08.355Z,99766.88
2022-09-10T05:10:56.634Z,99761.13
2022-09-10T05:13:45.249Z,99754.34
2022-09-10T05:16:36.815Z,99754.80
2022-09-10T05:19:27.094Z,99758.10
2022-09-10T05:22:21.878Z,99758.88
2022-09-10T05:25:10.352Z,99763.09
2022-09-10T05:28:01.338Z,99760.50
2022-09-10T05:30:51.799Z,99763.35
2022-09-10T05:33:43.586Z,99761.40
2022-09-10T05:36:34.687Z,99763.29
2022-09-10T05:39:22.598Z,99762.42
2022-09-10T05:42:11.499Z,99762.73
2022-09-10T05:44:59.442Z,99768.80
2022-09-10T05:47:48.040Z,99771.71
2022-09-10T05:50:39.194Z,99774.81
2022-09-10T05:53:27.499Z,99776.55
2022-09-10T05:56:15.665Z,99779.48
2022-09-10T05:59:04.637Z,99787.08
2022-09-10T06:01:53.798Z,99787.48
2022-09-10T06:04:42.590Z,99788.02
2022-09-10T06:07:31.597Z,99785.56
2022-09-10T06:10:20.204Z,99787.13
2022-09-10T06:13:11.996Z,99787.71
2022-09-10T06:16:01.087Z,99786.66
2022-09-10T06:18:49.709Z,99787.10
2022-09-10T06:21:41.278Z,99792.38
2022-09-10T06:24:29.768Z,99790.47
2022-09-10T06:27:17.738Z,99787.96
2022-09-10T06:30:08.027Z,99789.44
2022-09-10T06:32:59.354Z,99784.82
2022-09-10T06:36:03.586Z,99784.70
2022-09-10T06:38:55.838Z,99781.30
2022-09-10T06:41:49.040Z,99783.15
2022-09-10T06:44:56.106Z,99779.16
2022-09-10T06:51:27.784Z,99779.28
2022-09-10T06:54:17.852Z,99780.80
2022-09-10T06:57:06.042Z,99784.27
2022-09-10T06:59:53.835Z,99785.85
2022-09-10T07:02:45.167Z,99791.38
2022-09-10T07:05:34.228Z,99794.55
2022-09-10T07:08:22.964Z,99792.51
2022-09-10T07:11:16.029Z,99787.09
2022-09-10T07:14:05.302Z,99789.11
2022-09-10T07:16:55.768Z,99790.61
2022-09-10T07:19:46.468Z,99790.14
2022-09-10T07:22:58.934Z,99794.05
2022-09-10T07:25:49.114Z,99797.30
2022-09-10T07:28:56.361Z,99794.23
2022-09-10T07:31:49.818Z,99793.59
2022-09-10T07:34:41.693Z,99792.63
2022-09-10T07:37:29.928Z,99790.19
2022-09-10T07:40:17.957Z,99785.38
2022-09-10T07:43:07.234Z,99786.45
2022-09-10T07:45:55.650Z,99782.10
2022-09-10T07:48:43.841Z,99781.52
2022-09-10T07:51:34.803Z,99784.02
2022-09-10T07:54:25.016Z,99784.04
2022-09-10T07:57:16.743Z,99780.54
2022-09-10T08:00:14.763Z,99783.65
2022-09-10T08:03:11.555Z,99783.69
2022-09-10T08:06:04.688Z,99785.64
2022-09-10T08:08:53.653Z,99784.61
2022-09-10T08:11:41.975Z,99784.25
2022-09-10T08:14:32.098Z,99787.73
2022-09-10T08:17:21.248Z,99786.19
2022-09-10T08:20:10.549Z,99786.25
2022-09-10T08:23:00.995Z,99791.48
2022-09-10T08:25:52.561Z,99787.48
2022-09-10T08:28:47.615Z,99790.40
2022-09-10T08:31:37.189Z,99789.64
2022-09-10T08:34:35.551Z,99790.98
2022-09-10T08:37:31.476Z,99793.27
2022-09-10T08:40:19.351Z,99792.11
2022-09-10T08:43:09.485Z,99791.08
2022-09-10T08:46:02.676Z,99791.30
2022-09-10T08:49:19.200Z,99793.11
2022-09-10T08:52:35.423Z,99792.80
2022-09-10T08:55:33.258Z,99788.08
2022-09-10T08:58:33.352Z,99784.38
2022-09-10T09:01:55.256Z,99780.52
2022-09-10T09:04:54.870Z,99784.63
2022-09-10T09:07:43.421Z,99779.08
2022-09-10T09:11:05.970Z,99780.67
2022-09-10T09:14:27.324Z,99779.13
2022-09-10T09:17:44.880Z,99780.05
2022-09-10T09:20:47.277Z,99775.25
2022-09-10T09:27:17.065Z,99771.23
2022-09-10T09:30:33.980Z,99770.03
2022-09-10T09:33:25.181Z,99769.55
2022-09-10T09:36:23.825Z,99771.51
2022-09-10T09:40:05.097Z,99772.52
2022-09-10T09:43:33.906Z,99768.39
2022-09-10T09:46:24.515Z,99766.41
2022-09-10T09:49:16.722Z,99768.52
2022-09-10T09:52:24.454Z,99769.16
2022-09-10T09:55:33.745Z,99773.02
2022-09-10T09:58:25.032Z,99771.39
2022-09-10T10:01:17.585Z,99773.79
2022-09-10T10:04:27.011Z,99773.02
2022-09-10T10:07:24.921Z,99775.16
2022-09-10T10:10:24.192Z,99770.86
2022-09-10T10:13:21.827Z,99771.66
2022-09-10T10:16:35.323Z,99772.89
2022-09-10T10:19:37.736Z,99772.02
2022-09-10T10:22:28.029Z,99770.59
2022-09-10T10:25:44.981Z,99767.05
2022-09-10T10:28:32.853Z,99760.98
2022-09-10T10:31:21.297Z,99756.77
2022-09-10T10:34:15.351Z,99757.44
2022-09-10T10:37:46.918Z,99749.48
2022-09-10T10:40:48.808Z,99742.91
2022-09-10T10:43:36.543Z,99740.83
2022-09-10T10:46:34.623Z,99739.48
2022-09-10T10:49:48.631Z,99737.27
2022-09-10T10:52:51.494Z,99739.34
2022-09-10T10:55:47.612Z,99739.63
2022-09-10T10:58:54.329Z,99734.04
2022-09-10T11:01:56.334Z,99734.66
2022-09-10T11:04:52.066Z,99732.48
2022-09-10T11:07:43.963Z,99734.98
2022-09-10T11:10:43.627Z,99733.77
2022-09-10T11:13:42.238Z,99730.20
2022-09-10T11:16:49.105Z,99728.42
2022-09-10T11:19:56.493Z,99727.68
2022-09-10T11:23:05.178Z,99730.58
2022-09-10T11:26:15.247Z,99732.73
2022-09-10T11:29:33.503Z,99733.00
2022-09-10T11:33:02.004Z,99734.20
2022-09-10T11:36:25.985Z,99726.69
2022-09-10T11:39:32.203Z,99719.55
2022-09-10T11:42:41.261Z,99715.73
2022-09-10T11:46:00.254Z,99721.81
2022-09-10T11:49:03.772Z,99723.30
2022-09-10T11:51:51.540Z,99726.98
2022-09-10T11:54:40.816Z,99727.52
2022-09-10T11:57:52.186Z,99725.39
2022-09-10T12:01:05.889Z,99723.81
2022-09-10T12:04:15.136Z,99733.56
2022-09-10T12:07:21.993Z,99735.27
2022-09-10T12:10:30.570Z,99728.55
2022-09-10T12:13:19.144Z,99728.33
2022-09-10T12:16:21.266Z,99727.91
2022-09-10T12:19:47.086Z,99725.29
2022-09-10T12:22:45.026Z,99724.99
2022-09-10T12:25:34.751Z,99721.05
2022-09-10T12:28:41.970Z,99710.42
2022-09-10T12:32:04.437Z,99707.70
2022-09-10T12:35:30.553Z,99713.48
2022-09-10T12:38:55.399Z,99716.96
2022-09-10T12:41:43.569Z,99709.11
2022-09-10T12:44:35.253Z,99714.02
2022-09-10T12:47:42.347Z,99717.71
2022-09-10T12:50:37.229Z,99717.27
2022-09-10T12:53:55.943Z,99712.96
2022-09-10T12:57:05.204Z,99714.48
2022-09-10T13:00:47.916Z,99718.95
2022-09-10T13:03:54.934Z,99721.02
2022-09-10T13:06:46.014Z,99717.48
2022-09-10T13:09:39.075Z,99715.34
2022-09-10T13:12:29.078Z,99712.21
2022-09-10T13:15:24.436Z,99712.05
2022-09-10T13:18:25.647Z,99708.80
2022-09-10T13:21:26.023Z,99707.92
2022-09-10T13:24:37.369Z,99708.25
2022-09-10T13:27:40.923Z,99708.77
2022-09-10T13:30:30.176Z,99705.54
2022-09-10T13:33:23.219Z,99706.50
2022-09-10T13:36:22.787Z,99708.70
2022-09-10T13:39:39.704Z,99707.27
2022-09-10T13:43:05.722Z,99708.56
2022-09-10T13:46:11.674Z,99705.81
2022-09-10T13:49:07.848Z,99703.98
2022-09-10T13:52:08.995Z,99703.76
2022-09-10T13:54:59.822Z,99707.83
2022-09-10T13:57:55.038Z,99710.72
2022-09-10T14:01:03.666Z,99712.25
2022-09-10T14:03:52.183Z,99708.99
2022-09-10T14:06:40.055Z,99707.08
2022-09-10T14:09:28.697Z,99707.40
2022-09-10T14:12:21.033Z,99705.48
2022-09-10T14:15:20.826Z,99705.04
2022-09-10T14:18:10.908Z,99703.38
2022-09-10T14:21:00.520Z,99707.39
2022-09-10T14:23:49.557Z,99708.05
2022-09-10T14:26:37.389Z,99708.92
2022-09-10T14:29:26.285Z,99704.59
2022-09-10T14:32:23.240Z,99702.27
2022-09-10T14:35:49.464Z,99702.17
2022-09-10T14:38:40.486Z,99699.16
2022-09-10T14:41:32.385Z,99695.29
2022-09-10T14:44:22.743Z,99694.15
2022-09-10T14:47:11.118Z,99688.17
2022-09-10T14:50:34.823Z,99685.42
2022-09-10T14:53:22.667Z,99687.25
2022-09-10T14:56:21.730Z,99684.86
2022-09-10T14:59:24.256Z,99684.32
2022-09-10T15:02:27.227Z,99683.05
2022-09-10T15:05:17.740Z,99685.78
2022-09-10T15:08:08.775Z,99679.71
2022-09-10T15:10:56.672Z,99680.89
2022-09-10T15:13:46.848Z,99677.24
2022-09-10T15:16:35.383Z,99676.14
2022-09-10T15:19:23.625Z,99674.02
2022-09-10T15:22:28.102Z,99674.81
2022-09-10T15:25:41.019Z,99673.89
2022-09-10T15:28:28.974Z,99670.46
2022-09-10T15:31:24.602Z,99669.55
2022-09-10T15:34:12.633Z,99678.08
2022-09-10T15:37:03.368Z,99683.22
2022-09-10T15:39:51.882Z,99679.02
2022-09-10T15:42:40.124Z,99676.05
2022-09-10T15:45:28.007Z,99678.94
2022-09-10T15:48:15.951Z,99676.55
2022-09-10T15:51:13.899Z,99673.63
2022-09-10T15:54:04.932Z,99672.65
2022-09-10T15:56:56.040Z,99670.89
2022-09-10T15:59:43.771Z,99668.97
2022-09-10T16:02:31.904Z,99664.30
2022-09-10T16:05:23.842Z,99663.62
2022-09-10T16:08:12.027Z,99664.71
2022-09-10T16:11:01.008Z,99669.45
2022-09-10T16:13:48.739Z,99668.15
2022-09-10T16:16:37.384Z,99671.02
2022-09-10T16:19:25.565Z,99667.66
2022-09-10T16:22:16.466Z,99667.71
2022-09-10T16:25:08.609Z,99665.45
2022-09-10T16:27:56.366Z,99666.91
2022-09-10T16:30:44.747Z,99666.41
2022-09-10T16:33:32.639Z,99664.85
2022-09-10T16:36:20.757Z,99668.36
2022-09-10T16:39:14.010Z,99664.90
2022-09-10T16:42:02.237Z,99662.52
2022-09-10T16:44:51.191Z,99664.42
2022-09-10T16:47:38.843Z,99664.64
2022-09-10T16:50:27.024Z,99666.50
2022-09-10T16:53:15.030Z,99663.10
2022-09-10T16:56:09.204Z,99663.32
2022-09-10T16:58:57.852Z,99666.31
2022-09-10T17:01:47.965Z,99667.77
2022-09-10T17:04:36.084Z,99666.79
2022-09-10T17:07:23.841Z,99668.59
2022-09-10T17:10:12.276Z,99666.14
2022-09-10T17:13:00.614Z,99667.86
2022-09-10T17:15:48.533Z,99667.64
2022-09-10T17:18:36.409Z,99664.08
2022-09-10T17:21:31.616Z,99664.55
2022-09-10T17:24:25.474Z,99663.02
2022-09-10T17:27:17.165Z,99669.52
2022-09-10T17:30:07.057Z,99671.95
2022-09-10T17:32:54.721Z,99668.22
2022-09-10T17:35:58.469Z,99664.48
2022-09-10T17:38:46.411Z,99663.67
2022-09-10T17:41:34.478Z,99661.36
2022-09-10T17:44:25.119Z,99663.97
2022-09-10T17:47:13.733Z,99665.08
2022-09-10T17:50:01.809Z,99671.89
2022-09-10T17:52:50.437Z,99671.08
2022-09-10T17:55:39.209Z,99668.08
2022-09-10T17:58:29.835Z,99669.06
2022-09-10T18:01:24.921Z,99670.34
2022-09-10T18:04:13.341Z,99671.14
2022-09-10T18:07:04.073Z,99669.48
2022-09-10T18:09:52.437Z,99671.59
2022-09-10T18:12:42.286Z,99668.48
2022-09-10T18:15:31.165Z,99669.48
2022-09-10T18:18:21.480Z,99668.05
2022-09-10T18:21:17.319Z,99665.98
2022-09-10T18:24:11.680Z,99665.38
2022-09-10T18:27:04.458Z,99663.91
2022-09-10T18:29:52.240Z,99663.65
2022-09-10T18:32:40.664Z,99663.94
2022-09-10T18:35:28.851Z,99663.13
2022-09-10T18:38:16.768Z,99664.25
2022-09-10T18:41:06.878Z,99664.48
2022-09-10T18:44:05.671Z,99663.51
2022-09-10T18:46:53.677Z,99663.81
2022-09-10T18:49:45.233Z,99663.00
2022-09-10T18:52:35.437Z,99663.74
2022-09-10T18:55:27.563Z,99663.33
2022-09-10T18:58:15.684Z,99665.33
2022-09-10T19:01:14.228Z,99665.27
2022-09-10T19:04:08.360Z,99664.93
2022-09-10T19:07:02.096Z,99668.50
2022-09-10T19:09:49.793Z,99666.89
2022-09-10T19:12:37.759Z,99666.73
2022-09-10T19:15:28.097Z,99668.09
2022-09-10T19:18:15.900Z,99667.04
2022-09-10T19:21:06.207Z,99668.92
2022-09-10T19:24:03.499Z,99665.86
2022-09-10T19:26:53.596Z,99666.08
2022-09-10T19:29:42.400Z,99666.41
2022-09-10T19:32:30.806Z,99660.06
2022-09-10T19:35:19.232Z,99662.27
2022-09-10T19:38:27.478Z,99658.11
2022-09-10T19:41:18.905Z,99655.25
2022-09-10T19:44:09.463Z,99658.98
2022-09-10T19:46:57.929Z,99656.71
2022-09-10T19:49:47.511Z,99658.20
2022-09-10T19:52:35.535Z,99658.56
2022-09-10T19:55:24.355Z,99653.35
2022-09-10T19:58:12.683Z,99658.63
2022-09-10T20:01:00.722Z,99657.55
2022-09-10T20:03:50.888Z,99659.14
2022-09-10T20:06:39.831Z,99657.11
2022-09-10T20:09:27.610Z,99655.59
2022-09-10T20:12:16.442Z,99657.11
2022-09-10T20:15:05.539Z,99660.83
2022-09-10T20:17:53.934Z,99658.48
2022-09-10T20:20:42.916Z,99656.76
2022-09-10T20:23:30.872Z,99655.95
2022-09-10T20:26:29.243Z,99657.59
2022-09-10T20:29:19.514Z,99654.80
2022-09-10T20:32:10.364Z,99655.01
2022-09-10T20:34:58.397Z,99651.60
2022-09-10T20:37:51.211Z,99651.61
2022-09-10T20:40:42.687Z,99648.14
2022-09-10T20:43:30.595Z,99646.59
2022-09-10T20:46:22.839Z,99642.35
2022-09-10T20:49:13.742Z,99644.41
2022-09-10T20:52:01.787Z,99642.59
2022-09-10T20:54:50.446Z,99639.91
2022-09-10T20:57:39.866Z,99640.39
2022-09-10T21:00:28.427Z,99637.30
2022-09-10T21:03:19.016Z,99635.06
2022-09-10T21:06:10.327Z,99639.26
2022-09-10T21:09:02.838Z,99637.17
2022-09-10T21:11:50.949Z,99642.35
2022-09-10T21:14:39.108Z,99641.66
2022-09-10T21:17:27.039Z,99641.06
2022-09-10T21:20:15.405Z,99642.16
2022-09-10T21:23:09.377Z,99642.80
2022-09-10T21:25:57.450Z,99642.85
2022-09-10T21:28:45.975Z,99641.79
2022-09-10T21:31:40.545Z,99641.34
2022-09-10T21:34:28.965Z,99643.56
2022-09-10T21:37:19.976Z,99644.89
2022-09-10T21:40:08.814Z,99640.95
2022-09-10T21:42:58.048Z,99643.01
2022-09-10T21:45:46.528Z,99641.13
2022-09-10T21:48:36.261Z,99639.77
2022-09-10T21:51:24.812Z,99638.12
2022-09-10T21:54:21.069Z,99634.46
2022-09-10T21:57:11.924Z,99635.62
2022-09-10T22:00:00.333Z,99633.40
2022-09-10T22:02:50.077Z,99628.77
2022-09-10T22:05:38.465Z,99628.02
2022-09-10T22:08:26.282Z,99629.01
2022-09-10T22:11:19.568Z,99626.66
2022-09-10T22:14:14.722Z,99626.15
2022-09-10T22:17:02.399Z,99623.92
2022-09-10T22:19:52.180Z,99629.64
2022-09-10T22:22:40.058Z,99629.48
2022-09-10T22:25:34.679Z,99632.06
2022-09-10T22:28:25.516Z,99632.14
2022-09-10T22:31:18.502Z,99629.77
2022-09-10T22:34:16.390Z,99629.02
2022-09-10T22:37:04.214Z,99622.66
2022-09-10T22:39:52.867Z,99621.36
2022-09-10T22:42:40.626Z,99620.77
2022-09-10T22:45:32.726Z,99620.59
2022-09-10T22:48:20.558Z,99619.67
2022-09-10T22:51:15.478Z,99617.66
2022-09-10T22:54:05.357Z,99615.70
2022-09-10T22:56:53.223Z,99614.82
2022-09-10T22:59:41.492Z,99613.54
2022-09-10T23:02:29.542Z,99608.30
2022-09-10T23:05:17.865Z,99612.40
2022-09-10T23:08:05.612Z,99612.07
2022-09-10T23:10:56.040Z,99613.23
2022-09-10T23:13:59.693Z,99618.42
2022-09-10T23:16:51.918Z,99614.03
2022-09-10T23:19:39.645Z,99611.24
2022-09-10T23:22:27.412Z,99612.28
2022-09-10T23:25:15.414Z,99609.10
2022-09-10T23:28:07.102Z,99610.39
2022-09-10T23:30:55.279Z,99605.36
2022-09-10T23:33:58.329Z,99605.78
2022-09-10T23:36:48.872Z,99602.97
2022-09-10T23:39:37.242Z,99603.64
2022-09-10T23:42:25.002Z,99605.23
2022-09-10T23:45:13.137Z,99608.02
2022-09-10T23:48:01.337Z,99606.53
2022-09-10T23:50:50.682Z,99609.84
2022-09-10T23:53:39.999Z,99607.82
2022-09-10T23:56:28.724Z,99600.95
2022-09-10T23:59:16.325Z,99604.73
